Nave Atria — 3FFV5 — position and weather

sailwx.info

Track history (hours):
 
Tides and Currents Weather Stations Pressure Air Temp Water Temp Dewpoint Dewpoint Depression Visibility Wind Speed Wind Dir Waves Ship Positions

Nave Atria

Last reported at 2018-Apr-26 10:29 UTC. Time now 2018-Apr-26 10:54 UTC.
Position N 29°21' W 094°45'.

Length 183 m; draft 8.2 m.

Type: Tanker. MMSI: 373664000.

Date/timePositionNaut miles runAvg speedWind from/ knotsBaromVisibWave heightAir tempDewpointWater temp
2018-Apr-26 10:29N 29°21' W 094°45'0 0.1
2018-Apr-26 09:59N 29°21' W 094°45'0 0.0
2018-Apr-26 09:29N 29°21' W 094°45'0 0.0
2018-Apr-26 08:59N 29°21' W 094°45'0 0.0
2018-Apr-26 08:20N 29°21' W 094°45'0 0.0
2018-Apr-26 07:56N 29°21' W 094°45'0 0.0
2018-Apr-26 07:20N 29°21' W 094°45'0 0.0
2018-Apr-26 06:53N 29°21' W 094°45'0 0.0
2018-Apr-26 06:23N 29°21' W 094°45'0 0.0
2018-Apr-26 05:26N 29°21' W 094°45'0 0.1
2018-Apr-26 04:56N 29°21' W 094°45'0 0.2
2018-Apr-26 04:26N 29°21' W 094°45'0 0.0
2018-Apr-26 03:59N 29°21' W 094°45'0 0.1
2018-Apr-26 03:30N 29°21' W 094°45'2 4.8
2018-Apr-26 03:00N 29°21' W 094°42'510.0
2018-Apr-26 02:30N 29°18' W 094°37'5 9.2
2018-Apr-26 02:00N 29°16' W 094°32'3 5.8
2018-Apr-26 01:30N 29°14' W 094°30'4 8.6
2018-Apr-26 01:00N 29°11' W 094°26'4 7.3
2018-Apr-26 00:30N 29°08' W 094°25'5 9.7
2018-Apr-26 00:00N 29°03' W 094°25'3 6.7
2018-Apr-25 23:29N 28°59' W 094°24'4 7.8
2018-Apr-25 23:00N 28°56' W 094°25'611.8
2018-Apr-25 22:30N 28°50' W 094°25'712.8
2018-Apr-25 21:59N 28°43' W 094°25'612.7
2018-Apr-25 21:30N 28°37' W 094°25'612.5
2018-Apr-25 21:00N 28°31' W 094°25'  
Track history (hours):
 
Tides and Currents Weather Stations Pressure Air Temp Water Temp Dewpoint Dewpoint Depression Visibility Wind Speed Wind Dir Waves Ship Positions

Nave Atria

Last reported at 2018-Apr-26 10:29 UTC. Time now 2018-Apr-26 10:54 UTC.
Position N 29°21' W 094°45'.

Length 183 m; draft 8.2 m.

Type: Tanker. MMSI: 373664000.

Date/timePositionNaut miles runAvg speedWind from/ knotsBaromVisibWave heightAir tempDewpointWater temp
2018-Apr-26 10:29N 29°21' W 094°45'0 0.1
2018-Apr-26 09:59N 29°21' W 094°45'0 0.0
2018-Apr-26 09:29N 29°21' W 094°45'0 0.0
2018-Apr-26 08:59N 29°21' W 094°45'0 0.0
2018-Apr-26 08:20N 29°21' W 094°45'0 0.0
2018-Apr-26 07:56N 29°21' W 094°45'0 0.0
2018-Apr-26 07:20N 29°21' W 094°45'0 0.0
2018-Apr-26 06:53N 29°21' W 094°45'0 0.0
2018-Apr-26 06:23N 29°21' W 094°45'0 0.0
2018-Apr-26 05:26N 29°21' W 094°45'0 0.1
2018-Apr-26 04:56N 29°21' W 094°45'0 0.2
2018-Apr-26 04:26N 29°21' W 094°45'0 0.0
2018-Apr-26 03:59N 29°21' W 094°45'0 0.1
2018-Apr-26 03:30N 29°21' W 094°45'2 4.8
2018-Apr-26 03:00N 29°21' W 094°42'510.0
2018-Apr-26 02:30N 29°18' W 094°37'5 9.2
2018-Apr-26 02:00N 29°16' W 094°32'3 5.8
2018-Apr-26 01:30N 29°14' W 094°30'4 8.6
2018-Apr-26 01:00N 29°11' W 094°26'4 7.3
2018-Apr-26 00:30N 29°08' W 094°25'5 9.7
2018-Apr-26 00:00N 29°03' W 094°25'3 6.7
2018-Apr-25 23:29N 28°59' W 094°24'4 7.8
2018-Apr-25 23:00N 28°56' W 094°25'611.8
2018-Apr-25 22:30N 28°50' W 094°25'712.8
2018-Apr-25 21:59N 28°43' W 094°25'612.7
2018-Apr-25 21:30N 28°37' W 094°25'612.5
2018-Apr-25 21:00N 28°31' W 094°25'  

Dump ship's entire track history